createdAt,value
2023-04-20T00:00:47.124Z,96203.88
2023-04-20T00:03:20.795Z,96204.02
2023-04-20T00:05:50.546Z,96201.36
2023-04-20T00:08:17.170Z,96200.89
2023-04-20T00:10:44.626Z,96198.02
2023-04-20T00:13:11.457Z,96198.24
2023-04-20T00:15:38.359Z,96196.17
2023-04-20T00:18:05.499Z,96196.14
2023-04-20T00:20:33.038Z,96192.35
2023-04-20T00:23:00.081Z,96193.30
2023-04-20T00:25:26.776Z,96189.97
2023-04-20T00:27:53.452Z,96191.03
2023-04-20T00:30:20.086Z,96190.77
2023-04-20T00:32:46.821Z,96188.94
2023-04-20T00:35:13.637Z,96188.79
2023-04-20T00:37:40.282Z,96184.46
2023-04-20T00:40:08.555Z,96183.38
2023-04-20T00:42:36.963Z,96182.98
2023-04-20T00:45:04.027Z,96179.61
2023-04-20T00:47:30.593Z,96180.22
2023-04-20T00:49:57.501Z,96180.01
2023-04-20T00:52:24.237Z,96180.18
2023-04-20T00:54:50.879Z,96182.29
2023-04-20T00:57:18.849Z,96180.08
2023-04-20T00:59:45.891Z,96183.96
2023-04-20T01:02:13.923Z,96183.91
2023-04-20T01:04:41.836Z,96181.36
2023-04-20T01:07:08.576Z,96180.48
2023-04-20T01:09:38.820Z,96181.34
2023-04-20T01:12:06.978Z,96187.89
2023-04-20T01:14:33.818Z,96188.19
2023-04-20T01:17:00.551Z,96186.55
2023-04-20T01:19:27.710Z,96181.69
2023-04-20T01:21:54.970Z,96181.14
2023-04-20T01:24:21.491Z,96183.73
2023-04-20T01:26:48.337Z,96180.33
2023-04-20T01:29:15.478Z,96181.02
2023-04-20T01:31:42.791Z,96185.08
2023-04-20T01:34:09.887Z,96188.68
2023-04-20T01:36:36.843Z,96192.86
2023-04-20T01:39:03.783Z,96195.92
2023-04-20T01:41:30.635Z,96192.69
2023-04-20T01:43:57.563Z,96188.42
2023-04-20T01:46:24.223Z,96184.29
2023-04-20T01:48:50.946Z,96185.23
2023-04-20T01:51:17.688Z,96182.61
2023-04-20T01:53:44.530Z,96178.34
2023-04-20T01:56:11.172Z,96178.21
2023-04-20T01:58:37.910Z,96173.43
2023-04-20T02:01:05.114Z,96174.17
2023-04-20T02:03:34.177Z,96173.34
2023-04-20T02:06:01.096Z,96170.97
2023-04-20T02:08:29.997Z,96173.61
2023-04-20T02:10:57.038Z,96170.38
2023-04-20T02:13:23.692Z,96169.27
2023-04-20T02:15:50.433Z,96167.23
2023-04-20T02:18:18.696Z,96167.81
2023-04-20T02:20:45.735Z,96170.05
2023-04-20T02:23:12.794Z,96169.78
2023-04-20T02:25:39.629Z,96168.65
2023-04-20T02:28:06.394Z,96169.77
2023-04-20T02:30:33.221Z,96171.59
2023-04-20T02:33:00.380Z,96167.92
2023-04-20T02:35:27.105Z,96167.50
2023-04-20T02:37:53.848Z,96174.23
2023-04-20T02:40:20.585Z,96177.27
2023-04-20T02:42:47.426Z,96171.83
2023-04-20T02:45:14.163Z,96172.58
2023-04-20T02:47:42.370Z,96178.17
2023-04-20T02:50:10.742Z,96180.36
2023-04-20T02:52:50.943Z,96174.45
2023-04-20T02:55:18.029Z,96175.43
2023-04-20T02:57:47.033Z,96179.45
2023-04-20T03:00:14.091Z,96183.13
2023-04-20T03:02:56.035Z,96183.86
2023-04-20T03:05:23.840Z,96181.99
2023-04-20T03:07:50.601Z,96179.75
2023-04-20T03:10:17.261Z,96183.71
2023-04-20T03:12:57.973Z,96178.64
2023-04-20T03:15:59.859Z,96181.15
2023-04-20T03:18:46.833Z,96181.80
2023-04-20T03:21:14.537Z,96183.86
2023-04-20T03:23:41.363Z,96184.45
2023-04-20T03:26:08.926Z,96180.23
2023-04-20T03:28:42.635Z,96182.67
2023-04-20T03:31:11.422Z,96183.99
2023-04-20T03:33:38.564Z,96182.32
2023-04-20T03:36:06.227Z,96184.27
2023-04-20T03:38:33.064Z,96183.10
2023-04-20T03:40:59.802Z,96184.46
2023-04-20T03:43:27.584Z,96189.38
2023-04-20T03:45:55.086Z,96195.38
2023-04-20T03:48:21.974Z,96195.38
2023-04-20T03:50:48.608Z,96197.98
2023-04-20T03:53:15.246Z,96199.66
2023-04-20T03:55:42.098Z,96197.66
2023-04-20T03:58:10.976Z,96193.98
2023-04-20T04:00:46.762Z,96194.23
2023-04-20T04:03:14.589Z,96195.83
2023-04-20T04:05:41.660Z,96193.89
2023-04-20T04:08:08.390Z,96194.58
2023-04-20T04:10:35.662Z,96196.45
2023-04-20T04:13:03.515Z,96196.04
2023-04-20T04:15:31.584Z,96196.84
2023-04-20T04:18:01.840Z,96201.41
2023-04-20T04:20:31.103Z,96205.84
2023-04-20T04:22:57.965Z,96207.77
2023-04-20T04:25:45.685Z,96208.11
2023-04-20T04:28:14.285Z,96206.66
2023-04-20T04:30:47.674Z,96205.61
2023-04-20T04:33:18.502Z,96207.94
2023-04-20T04:35:46.011Z,96208.61
2023-04-20T04:38:13.523Z,96206.39
2023-04-20T04:40:45.381Z,96199.71
2023-04-20T04:43:12.222Z,96191.85
2023-04-20T04:45:40.928Z,96191.77
2023-04-20T04:48:11.334Z,96198.07
2023-04-20T04:50:38.587Z,96207.31
2023-04-20T04:53:06.900Z,96213.56
2023-04-20T04:55:34.029Z,96212.52
2023-04-20T04:58:01.279Z,96217.54
2023-04-20T05:00:28.928Z,96218.98
2023-04-20T05:02:55.960Z,96216.09
2023-04-20T05:05:22.925Z,96215.05
2023-04-20T05:07:49.562Z,96218.27
2023-04-20T05:10:16.185Z,96221.30
2023-04-20T05:12:44.066Z,96224.67
2023-04-20T05:15:10.909Z,96221.84
2023-04-20T05:17:37.544Z,96225.08
2023-04-20T05:20:06.246Z,96225.95
2023-04-20T05:22:32.866Z,96224.11
2023-04-20T05:24:59.617Z,96222.13
2023-04-20T05:27:26.426Z,96221.48
2023-04-20T05:29:53.126Z,96222.04
2023-04-20T05:32:19.854Z,96220.98
2023-04-20T05:34:46.560Z,96222.14
2023-04-20T05:37:15.083Z,96228.87
2023-04-20T05:39:42.202Z,96232.45
2023-04-20T05:42:08.856Z,96231.56
2023-04-20T05:44:36.001Z,96232.12
2023-04-20T05:47:05.806Z,96236.78
2023-04-20T05:49:32.638Z,96238.11
2023-04-20T05:51:59.402Z,96238.89
2023-04-20T05:54:27.753Z,96241.12
2023-04-20T05:56:55.120Z,96242.78
2023-04-20T05:59:22.168Z,96246.38
2023-04-20T06:01:49.222Z,96249.52
2023-04-20T06:04:16.297Z,96252.37
2023-04-20T06:06:43.320Z,96252.75
2023-04-20T06:09:10.259Z,96251.71
2023-04-20T06:11:37.002Z,96252.20
2023-04-20T06:14:03.630Z,96249.76
2023-04-20T06:16:30.510Z,96247.23
2023-04-20T06:18:57.290Z,96252.79
2023-04-20T06:21:24.177Z,96249.98
2023-04-20T06:23:50.850Z,96247.60
2023-04-20T06:26:17.440Z,96242.83
2023-04-20T06:28:44.915Z,96243.05
2023-04-20T06:31:11.706Z,96245.39
2023-04-20T06:33:38.494Z,96245.75
2023-04-20T06:36:08.120Z,96247.20
2023-04-20T06:38:35.038Z,96242.02
2023-04-20T06:48:36.973Z,96239.28
2023-04-20T06:51:04.102Z,96244.55
2023-04-20T06:53:30.608Z,96245.05
2023-04-20T06:55:57.329Z,96247.71
2023-04-20T06:58:24.012Z,96250.48
2023-04-20T07:00:51.367Z,96252.88
2023-04-20T07:13:25.360Z,96249.29
2023-04-20T07:15:52.103Z,96251.77
2023-04-20T07:18:18.721Z,96252.61
2023-04-20T07:20:45.572Z,96256.58
2023-04-20T07:23:12.208Z,96255.77
2023-04-20T07:33:13.759Z,96258.78
2023-04-20T07:35:40.489Z,96254.55
2023-04-20T07:38:07.214Z,96256.30
2023-04-20T07:40:33.846Z,96258.70
2023-04-20T07:43:00.561Z,96260.42
2023-04-20T07:45:27.462Z,96260.52
2023-04-20T07:55:29.732Z,96257.67
2023-04-20T07:57:57.193Z,96261.67
2023-04-20T08:00:24.663Z,96262.05
2023-04-20T08:02:52.043Z,96262.15
2023-04-20T08:05:19.055Z,96262.53
2023-04-20T08:17:52.632Z,96246.66
2023-04-20T08:20:19.585Z,96246.98
2023-04-20T08:22:46.333Z,96246.29
2023-04-20T08:25:13.129Z,96250.58
2023-04-20T08:27:39.894Z,96248.75
2023-04-20T08:40:19.524Z,96245.05
2023-04-20T08:42:46.039Z,96244.13
2023-04-20T08:45:12.671Z,96239.60
2023-04-20T08:47:39.464Z,96235.28
2023-04-20T08:50:07.091Z,96232.02
2023-04-20T09:02:54.531Z,96231.40
2023-04-20T09:05:29.177Z,96230.28
2023-04-20T09:07:59.424Z,96225.69
2023-04-20T09:10:26.673Z,96224.81
2023-04-20T09:12:53.522Z,96225.16
2023-04-20T09:15:27.220Z,96227.20
2023-04-20T09:20:32.497Z,96226.02
2023-04-20T09:23:18.988Z,96227.27
2023-04-20T09:25:49.606Z,96221.28
2023-04-20T09:28:17.191Z,96219.33
2023-04-20T09:30:48.439Z,96216.80
2023-04-20T09:38:25.161Z,96216.73
2023-04-20T09:40:51.881Z,96219.73
2023-04-20T09:43:19.371Z,96213.88
2023-04-20T09:45:48.522Z,96213.70
2023-04-20T09:48:18.540Z,96216.91
2023-04-20T09:50:49.808Z,96217.42
2023-04-20T09:53:18.268Z,96216.18
2023-04-20T09:55:50.733Z,96212.92
2023-04-20T09:58:19.016Z,96214.38
2023-04-20T10:00:45.748Z,96216.23
2023-04-20T10:03:16.749Z,96209.73
2023-04-20T10:10:48.612Z,96201.89
2023-04-20T10:13:16.464Z,96204.55
2023-04-20T10:15:43.332Z,96206.69
2023-04-20T10:18:24.180Z,96202.66
2023-04-20T10:20:51.527Z,96203.15
2023-04-20T10:23:19.200Z,96198.41
2023-04-20T10:25:56.864Z,96198.36
2023-04-20T10:28:23.530Z,96196.16
2023-04-20T10:30:51.325Z,96198.81
2023-04-20T10:33:18.308Z,96197.82
2023-04-20T10:35:54.855Z,96195.20
2023-04-20T11:00:28.272Z,96195.77
2023-04-20T11:02:58.264Z,96192.16
2023-04-20T11:05:26.679Z,96192.29
2023-04-20T11:07:57.926Z,96193.38
2023-04-20T11:10:36.652Z,96195.39
2023-04-20T11:13:03.589Z,96192.51
2023-04-20T11:15:31.566Z,96195.89
2023-04-20T11:18:08.954Z,96193.70
2023-04-20T11:20:35.898Z,96193.45
2023-04-20T11:23:04.595Z,96191.05
2023-04-20T11:25:31.414Z,96191.41
2023-04-20T11:28:08.219Z,96191.79
2023-04-20T11:30:40.677Z,96193.63
2023-04-20T11:33:07.440Z,96194.33
2023-04-20T11:35:38.048Z,96190.17
2023-04-20T11:38:04.986Z,96188.06
2023-04-20T11:40:31.734Z,96190.01
2023-04-20T11:42:59.508Z,96184.80
2023-04-20T11:45:27.515Z,96186.52
2023-04-20T11:47:54.745Z,96189.42
2023-04-20T11:50:21.858Z,96184.46
2023-04-20T11:52:48.608Z,96182.52
2023-04-20T11:55:16.169Z,96183.42
2023-04-20T12:05:18.829Z,96184.46
2023-04-20T12:07:46.053Z,96182.14
2023-04-20T12:10:13.197Z,96176.53
2023-04-20T12:12:41.481Z,96178.08
2023-04-20T12:15:08.745Z,96180.15
2023-04-20T12:17:35.714Z,96183.23
2023-04-20T12:25:08.202Z,96183.39
2023-04-20T12:27:35.141Z,96182.17
2023-04-20T12:30:02.186Z,96182.97
2023-04-20T12:32:28.988Z,96185.70
2023-04-20T12:34:55.968Z,96179.42
2023-04-20T12:37:22.920Z,96182.94
2023-04-20T12:47:25.472Z,96178.04
2023-04-20T12:49:52.104Z,96176.36
2023-04-20T12:52:18.920Z,96173.11
2023-04-20T12:54:45.974Z,96165.67
2023-04-20T12:57:12.601Z,96165.85
2023-04-20T12:59:39.298Z,96171.30
2023-04-20T13:02:06.005Z,96166.60
2023-04-20T13:04:32.949Z,96165.02
2023-04-20T13:09:31.018Z,96163.77
2023-04-20T13:11:58.682Z,96165.10
2023-04-20T13:14:26.036Z,96166.59
2023-04-20T13:16:55.137Z,96163.93
2023-04-20T13:19:22.402Z,96165.42
2023-04-20T13:21:49.245Z,96162.05
2023-04-20T13:24:16.222Z,96163.05
2023-04-20T13:26:43.051Z,96162.05
2023-04-20T13:29:09.856Z,96163.14
2023-04-20T13:31:37.168Z,96161.95
2023-04-20T13:34:04.023Z,96159.87
2023-04-20T13:36:31.299Z,96161.16
2023-04-20T13:38:57.949Z,96160.95
2023-04-20T13:41:24.704Z,96157.58
2023-04-20T13:43:51.388Z,96157.75
2023-04-20T13:46:19.462Z,96160.82
2023-04-20T13:48:46.272Z,96157.87
2023-04-20T13:51:12.980Z,96157.16
2023-04-20T13:53:39.948Z,96159.37
2023-04-20T13:56:07.490Z,96159.16
2023-04-20T13:58:34.228Z,96157.45
2023-04-20T14:01:00.770Z,96157.28
2023-04-20T14:03:27.739Z,96152.30
2023-04-20T14:05:55.070Z,96156.75
2023-04-20T14:08:22.832Z,96158.45
2023-04-20T14:10:50.081Z,96160.48
2023-04-20T14:13:17.132Z,96158.55
2023-04-20T14:15:43.726Z,96159.31
2023-04-20T14:18:10.511Z,96162.72
2023-04-20T14:20:37.353Z,96160.02
2023-04-20T14:23:04.001Z,96158.58
2023-04-20T14:25:30.841Z,96155.73
2023-04-20T14:27:57.347Z,96156.32
2023-04-20T14:30:24.105Z,96159.19
2023-04-20T14:32:55.402Z,96161.23
2023-04-20T14:35:22.911Z,96159.44
2023-04-20T14:37:49.764Z,96160.73
2023-04-20T14:40:16.489Z,96158.06
2023-04-20T14:42:43.351Z,96162.80
2023-04-20T14:45:11.214Z,96161.92
2023-04-20T14:47:39.382Z,96163.75
2023-04-20T14:50:09.614Z,96165.33
2023-04-20T14:52:36.244Z,96165.37
2023-04-20T14:55:03.613Z,96166.45
2023-04-20T14:57:31.017Z,96167.95
2023-04-20T14:59:57.698Z,96165.50
2023-04-20T15:02:25.072Z,96165.59
2023-04-20T15:04:52.168Z,96169.67
2023-04-20T15:07:19.087Z,96168.48
2023-04-20T15:09:45.888Z,96166.59
2023-04-20T15:12:12.525Z,96164.21
2023-04-20T15:14:39.164Z,96169.12
2023-04-20T15:17:06.215Z,96166.91
2023-04-20T15:19:32.962Z,96170.23
2023-04-20T15:22:00.503Z,96168.32
2023-04-20T15:24:27.143Z,96172.34
2023-04-20T15:26:53.793Z,96173.67
2023-04-20T15:29:20.930Z,96173.17
2023-04-20T15:31:47.807Z,96175.04
2023-04-20T15:34:14.740Z,96173.52
2023-04-20T15:36:42.488Z,96178.63
2023-04-20T15:39:09.223Z,96178.72
2023-04-20T15:41:35.777Z,96170.45
2023-04-20T15:44:02.450Z,96170.70
2023-04-20T15:46:29.374Z,96173.11
2023-04-20T15:48:56.401Z,96169.54
2023-04-20T15:51:24.187Z,96171.15
2023-04-20T15:53:51.415Z,96171.45
2023-04-20T15:56:18.249Z,96173.06
2023-04-20T15:58:45.716Z,96172.44
2023-04-20T16:01:12.676Z,96173.60
2023-04-20T16:03:40.278Z,96170.77
2023-04-20T16:06:07.671Z,96168.86
2023-04-20T16:08:34.316Z,96170.19
2023-04-20T16:11:01.062Z,96167.02
2023-04-20T16:13:27.901Z,96168.67
2023-04-20T16:15:55.149Z,96170.00
2023-04-20T16:18:22.095Z,96170.80
2023-04-20T16:20:49.041Z,96173.02
2023-04-20T16:23:15.992Z,96174.77
2023-04-20T16:25:42.735Z,96175.77
2023-04-20T16:28:09.481Z,96178.02
2023-04-20T16:30:36.621Z,96174.77
2023-04-20T16:33:03.382Z,96178.04
2023-04-20T16:35:30.409Z,96174.02
2023-04-20T16:37:56.960Z,96174.46
2023-04-20T16:40:25.526Z,96177.78
2023-04-20T16:42:52.391Z,96177.77
2023-04-20T16:45:19.318Z,96180.60
2023-04-20T16:50:19.977Z,96182.36
2023-04-20T16:52:47.023Z,96184.89
2023-04-20T16:55:13.749Z,96182.55
2023-04-20T16:57:41.636Z,96183.88
2023-04-20T17:00:10.410Z,96185.24
2023-04-20T17:02:38.547Z,96187.90
2023-04-20T17:05:06.858Z,96190.89
2023-04-20T17:07:35.867Z,96192.59
2023-04-20T17:10:02.589Z,96194.63
2023-04-20T17:12:29.242Z,96190.73
2023-04-20T17:14:56.090Z,96193.94
2023-04-20T17:17:23.073Z,96194.23
2023-04-20T17:19:49.863Z,96193.98
2023-04-20T17:22:16.505Z,96198.06
2023-04-20T17:24:42.987Z,96198.77
2023-04-20T17:27:09.583Z,96203.25
2023-04-20T17:29:37.960Z,96203.54
2023-04-20T17:32:05.339Z,96203.96
2023-04-20T17:34:32.481Z,96204.66
2023-04-20T17:36:59.309Z,96207.77
2023-04-20T17:39:26.452Z,96211.27
2023-04-20T17:41:53.103Z,96214.17
2023-04-20T17:44:20.380Z,96211.59
2023-04-20T17:46:49.947Z,96215.88
2023-04-20T17:49:16.498Z,96216.13
2023-04-20T17:51:43.082Z,96219.36
2023-04-20T17:54:10.710Z,96220.94
2023-04-20T17:56:37.423Z,96222.86
2023-04-20T17:59:04.873Z,96222.98
2023-04-20T18:01:34.226Z,96226.11
2023-04-20T18:04:02.251Z,96225.73
2023-04-20T18:06:29.553Z,96226.89
2023-04-20T18:08:57.786Z,96229.17
2023-04-20T18:11:24.739Z,96226.77
2023-04-20T18:13:51.569Z,96226.39
2023-04-20T18:16:18.535Z,96226.39
2023-04-20T18:18:45.680Z,96227.80
2023-04-20T18:21:13.637Z,96227.17
2023-04-20T18:23:40.479Z,96231.29
2023-04-20T18:26:09.681Z,96230.30
2023-04-20T18:28:36.326Z,96233.71
2023-04-20T18:31:03.008Z,96239.86
2023-04-20T18:33:29.914Z,96240.62
2023-04-20T18:35:56.758Z,96244.61
2023-04-20T18:38:23.392Z,96252.90
2023-04-20T18:40:50.128Z,96255.71
2023-04-20T18:43:17.083Z,96261.63
2023-04-20T18:45:43.631Z,96260.88
2023-04-20T18:48:10.987Z,96262.70
2023-04-20T18:50:37.904Z,96261.27
2023-04-20T18:53:04.853Z,96264.55
2023-04-20T18:55:31.794Z,96262.24
2023-04-20T18:57:59.432Z,96262.11
2023-04-20T19:00:25.982Z,96262.93
2023-04-20T19:02:53.232Z,96266.77
2023-04-20T19:05:20.399Z,96266.14
2023-04-20T19:07:47.232Z,96268.50
2023-04-20T19:10:14.184Z,96269.59
2023-04-20T19:12:40.922Z,96271.71
2023-04-20T19:15:08.613Z,96269.98
2023-04-20T19:17:35.691Z,96271.06
2023-04-20T19:20:03.808Z,96272.05
2023-04-20T19:22:30.659Z,96272.48
2023-04-20T19:24:57.506Z,96266.08
2023-04-20T19:27:24.430Z,96270.88
2023-04-20T19:29:51.278Z,96271.44
2023-04-20T19:32:17.814Z,96269.46
2023-04-20T19:34:44.548Z,96268.52
2023-04-20T19:37:11.500Z,96268.71
2023-04-20T19:39:38.134Z,96273.69
2023-04-20T19:42:04.907Z,96275.30
2023-04-20T19:44:31.931Z,96276.79
2023-04-20T19:46:58.681Z,96277.46
2023-04-20T19:49:25.473Z,96278.95
2023-04-20T19:51:52.041Z,96287.58
2023-04-20T19:54:18.687Z,96287.48
2023-04-20T19:56:45.330Z,96285.16
2023-04-20T19:59:11.834Z,96279.58
2023-04-20T20:01:38.539Z,96279.04
2023-04-20T20:04:05.602Z,96276.61
2023-04-20T20:06:32.586Z,96273.23
2023-04-20T20:08:59.445Z,96273.02
2023-04-20T20:11:27.105Z,96272.73
2023-04-20T20:13:53.740Z,96274.98
2023-04-20T20:16:20.393Z,96273.90
2023-04-20T20:18:47.736Z,96273.57
2023-04-20T20:21:14.568Z,96271.63
2023-04-20T20:23:41.202Z,96272.03
2023-04-20T20:26:07.846Z,96274.05
2023-04-20T20:28:34.490Z,96269.75
2023-04-20T20:31:01.203Z,96272.10
2023-04-20T20:33:27.861Z,96276.48
2023-04-20T20:35:54.806Z,96275.40
2023-04-20T20:38:22.014Z,96270.39
2023-04-20T20:40:50.036Z,96270.22
2023-04-20T20:43:19.543Z,96272.32
2023-04-20T20:45:46.782Z,96270.31
2023-04-20T20:48:13.521Z,96271.27
2023-04-20T20:50:40.578Z,96272.36
2023-04-20T20:53:08.441Z,96268.48
2023-04-20T20:55:34.990Z,96268.85
2023-04-20T20:58:01.615Z,96271.27
2023-04-20T21:00:28.383Z,96277.33
2023-04-20T21:02:56.670Z,96278.52
2023-04-20T21:05:23.588Z,96279.61
2023-04-20T21:07:50.624Z,96279.61
2023-04-20T21:10:17.580Z,96280.35
2023-04-20T21:12:44.102Z,96280.30
2023-04-20T21:15:11.481Z,96284.39
2023-04-20T21:17:38.348Z,96284.67
2023-04-20T21:20:05.992Z,96285.78
2023-04-20T21:22:32.615Z,96289.90
2023-04-20T21:24:59.673Z,96292.98
2023-04-20T21:27:27.423Z,96291.51
2023-04-20T21:29:54.164Z,96292.15
2023-04-20T21:32:20.744Z,96292.65
2023-04-20T21:34:47.645Z,96290.61
2023-04-20T21:37:14.490Z,96291.64
2023-04-20T21:39:41.069Z,96290.14
2023-04-20T21:42:07.664Z,96290.59
2023-04-20T21:52:04.453Z,96283.93
2023-04-20T21:54:32.655Z,96287.71
2023-04-20T21:57:01.307Z,96289.36
2023-04-20T21:59:27.910Z,96284.96
2023-04-20T22:01:55.132Z,96283.95
2023-04-20T22:04:22.060Z,96279.48
2023-04-20T22:14:19.558Z,96279.27
2023-04-20T22:16:47.524Z,96278.84
2023-04-20T22:19:14.363Z,96277.42
2023-04-20T22:21:42.432Z,96276.95
2023-04-20T22:24:09.028Z,96276.92
2023-04-20T22:26:35.554Z,96278.59
2023-04-20T22:29:02.147Z,96276.81
2023-04-20T22:31:29.137Z,96277.05
2023-04-20T22:33:55.869Z,96277.30
2023-04-20T22:36:22.434Z,96276.84
2023-04-20T22:38:49.399Z,96276.41
2023-04-20T22:41:17.426Z,96274.53
2023-04-20T22:43:44.442Z,96275.32
2023-04-20T22:46:11.132Z,96276.88
2023-04-20T22:51:09.678Z,96276.36
2023-04-20T22:56:08.078Z,96277.73
2023-04-20T22:58:34.703Z,96278.56
2023-04-20T23:01:01.717Z,96275.65
2023-04-20T23:03:28.788Z,96281.16
2023-04-20T23:05:56.778Z,96278.00
2023-04-20T23:08:24.946Z,96277.20
2023-04-20T23:13:25.932Z,96278.51
2023-04-20T23:15:52.697Z,96276.96
2023-04-20T23:18:19.526Z,96277.84
2023-04-20T23:20:46.035Z,96276.51
2023-04-20T23:23:12.749Z,96276.45
2023-04-20T23:25:39.304Z,96277.65
2023-04-20T23:28:05.945Z,96276.02
2023-04-20T23:30:32.591Z,96277.38
2023-04-20T23:32:59.389Z,96279.14
2023-04-20T23:35:26.167Z,96280.74
2023-04-20T23:37:54.739Z,96277.25
2023-04-20T23:40:21.453Z,96273.11
2023-04-20T23:42:48.224Z,96268.42
2023-04-20T23:45:15.180Z,96274.27
2023-04-20T23:47:42.188Z,96273.51
2023-04-20T23:50:09.070Z,96274.15
2023-04-20T23:52:35.915Z,96273.73
2023-04-20T23:55:03.359Z,96271.55
2023-04-20T23:57:30.152Z,96271.89
2023-04-20T23:59:56.735Z,96270.60
